createdAt,value
2023-05-16T00:00:09.796Z,9.30
2023-05-16T00:02:40.553Z,9.30
2023-05-16T00:05:10.987Z,9.30
2023-05-16T00:07:39.858Z,9.30
2023-05-16T00:10:10.846Z,9.20
2023-05-16T00:12:42.148Z,9.20
2023-05-16T00:15:14.219Z,9.20
2023-05-16T00:17:44.158Z,9.20
2023-05-16T00:20:14.598Z,9.10
2023-05-16T00:22:43.581Z,9.00
2023-05-16T00:25:12.523Z,9.00
2023-05-16T00:27:43.061Z,9.00
2023-05-16T00:30:13.271Z,8.90
2023-05-16T00:32:42.003Z,8.90
2023-05-16T00:35:12.871Z,8.80
2023-05-16T00:37:41.923Z,8.80
2023-05-16T00:40:11.797Z,8.80
2023-05-16T00:42:42.205Z,8.70
2023-05-16T00:45:11.653Z,8.60
2023-05-16T00:47:40.740Z,8.50
2023-05-16T00:50:09.869Z,8.50
2023-05-16T00:52:38.629Z,8.50
2023-05-16T00:55:10.842Z,8.40
2023-05-16T00:57:39.754Z,8.30
2023-05-16T01:00:20.269Z,8.30
2023-05-16T01:02:49.682Z,8.20
2023-05-16T01:05:18.382Z,8.20
2023-05-16T01:07:47.111Z,8.20
2023-05-16T01:10:15.956Z,8.20
2023-05-16T01:12:55.356Z,8.10
2023-05-16T01:15:30.363Z,8.10
2023-05-16T01:18:05.761Z,8.10
2023-05-16T01:20:43.986Z,8.10
2023-05-16T01:23:27.507Z,8.00
2023-05-16T01:26:03.421Z,7.90
2023-05-16T01:28:34.983Z,7.80
2023-05-16T01:31:05.376Z,7.80
2023-05-16T01:33:34.418Z,7.80
2023-05-16T01:36:15.106Z,7.70
2023-05-16T01:38:51.299Z,7.70
2023-05-16T01:41:26.410Z,7.70
2023-05-16T01:44:03.842Z,7.60
2023-05-16T01:46:39.150Z,7.60
2023-05-16T01:49:18.078Z,7.50
2023-05-16T01:51:53.515Z,7.50
2023-05-16T01:54:26.588Z,7.50
2023-05-16T01:56:57.823Z,7.50
2023-05-16T01:59:28.944Z,7.40
2023-05-16T02:01:59.946Z,7.40
2023-05-16T02:04:29.105Z,7.30
2023-05-16T02:07:00.875Z,7.30
2023-05-16T02:09:29.626Z,7.30
2023-05-16T02:11:58.386Z,7.30
2023-05-16T02:14:28.514Z,7.20
2023-05-16T02:16:57.614Z,7.20
2023-05-16T02:19:26.716Z,7.20
2023-05-16T02:21:55.850Z,7.10
2023-05-16T02:24:24.651Z,7.10
2023-05-16T02:26:53.529Z,7.10
2023-05-16T02:29:22.166Z,7.00
2023-05-16T02:31:52.151Z,7.00
2023-05-16T02:34:20.959Z,7.00
2023-05-16T02:36:49.657Z,7.00
2023-05-16T02:39:18.200Z,7.00
2023-05-16T02:41:46.960Z,6.90
2023-05-16T02:44:15.793Z,6.90
2023-05-16T02:46:44.555Z,6.90
2023-05-16T02:49:15.259Z,6.90
2023-05-16T02:51:44.012Z,6.80
2023-05-16T02:54:12.863Z,6.80
2023-05-16T02:56:41.700Z,6.80
2023-05-16T02:59:12.054Z,6.80
2023-05-16T03:01:41.052Z,6.80
2023-05-16T03:04:09.658Z,6.80
2023-05-16T03:06:39.725Z,6.70
2023-05-16T03:09:08.906Z,6.70
2023-05-16T03:11:38.214Z,6.70
2023-05-16T03:14:06.983Z,6.70
2023-05-16T03:16:37.174Z,6.70
2023-05-16T03:19:05.886Z,6.60
2023-05-16T03:21:34.965Z,6.60
2023-05-16T03:24:06.053Z,6.60
2023-05-16T03:26:34.994Z,6.50
2023-05-16T03:29:03.777Z,6.50
2023-05-16T03:31:33.712Z,6.50
2023-05-16T03:34:02.444Z,6.50
2023-05-16T03:36:31.754Z,6.50
2023-05-16T03:39:01.030Z,6.50
2023-05-16T03:41:31.569Z,6.50
2023-05-16T03:44:00.144Z,6.50
2023-05-16T03:46:29.883Z,6.40
2023-05-16T03:48:59.100Z,6.40
2023-05-16T03:51:28.546Z,6.40
2023-05-16T03:53:57.347Z,6.40
2023-05-16T03:56:26.696Z,6.40
2023-05-16T03:58:58.712Z,6.30
2023-05-16T04:01:27.681Z,6.30
2023-05-16T04:03:56.452Z,6.30
2023-05-16T04:06:25.166Z,6.30
2023-05-16T04:08:53.781Z,6.30
2023-05-16T04:11:22.576Z,6.30
2023-05-16T04:13:51.738Z,6.20
2023-05-16T04:16:22.263Z,6.30
2023-05-16T04:18:51.270Z,6.30
2023-05-16T04:21:20.052Z,6.30
2023-05-16T04:23:49.078Z,6.30
2023-05-16T04:26:18.196Z,6.30
2023-05-16T04:28:46.988Z,6.30
2023-05-16T04:31:16.001Z,6.30
2023-05-16T04:33:47.418Z,6.20
2023-05-16T04:36:15.952Z,6.30
2023-05-16T04:38:44.476Z,6.30
2023-05-16T04:41:13.407Z,6.30
2023-05-16T04:43:42.558Z,6.30
2023-05-16T04:46:12.146Z,6.30
2023-05-16T04:48:40.956Z,6.40
2023-05-16T04:51:12.170Z,6.40
2023-05-16T04:53:40.739Z,6.50
2023-05-16T04:56:09.998Z,6.50
2023-05-16T04:58:41.012Z,6.50
2023-05-16T05:01:11.402Z,6.60
2023-05-16T05:03:40.039Z,6.70
2023-05-16T05:06:08.851Z,6.70
2023-05-16T05:08:38.910Z,6.70
2023-05-16T05:11:07.536Z,6.80
2023-05-16T05:13:36.342Z,6.80
2023-05-16T05:16:06.395Z,6.90
2023-05-16T05:18:35.232Z,6.90
2023-05-16T05:21:04.365Z,7.00
2023-05-16T05:23:33.258Z,7.10
2023-05-16T05:26:05.275Z,7.20
2023-05-16T05:28:33.955Z,7.20
2023-05-16T05:31:03.028Z,7.30
2023-05-16T05:33:31.692Z,7.40
2023-05-16T05:36:01.888Z,7.50
2023-05-16T05:38:32.588Z,7.60
2023-05-16T05:41:02.816Z,7.60
2023-05-16T05:43:31.688Z,7.60
2023-05-16T05:46:00.373Z,7.70
2023-05-16T05:48:30.801Z,7.70
2023-05-16T05:50:59.615Z,7.80
2023-05-16T05:53:28.522Z,8.00
2023-05-16T05:55:57.671Z,8.20
2023-05-16T05:58:28.372Z,8.30
2023-05-16T06:00:56.917Z,8.40
2023-05-16T06:03:25.799Z,8.50
2023-05-16T06:05:55.966Z,8.50
2023-05-16T06:08:25.029Z,8.60
2023-05-16T06:10:54.629Z,8.70
2023-05-16T06:13:23.422Z,8.90
2023-05-16T06:15:54.111Z,8.90
2023-05-16T06:18:23.620Z,9.10
2023-05-16T06:20:52.605Z,9.10
2023-05-16T06:23:21.628Z,9.20
2023-05-16T06:25:50.460Z,9.20
2023-05-16T06:28:19.372Z,9.20
2023-05-16T06:30:50.935Z,9.30
2023-05-16T06:33:21.117Z,9.40
2023-05-16T06:35:50.419Z,9.50
2023-05-16T06:38:20.633Z,9.50
2023-05-16T06:40:50.585Z,9.50
2023-05-16T06:43:20.106Z,9.60
2023-05-16T06:45:48.922Z,9.70
2023-05-16T06:48:17.513Z,9.80
2023-05-16T06:50:51.441Z,9.90
2023-05-16T06:53:20.099Z,10.00
2023-05-16T06:55:49.472Z,10.10
2023-05-16T06:58:18.739Z,10.30
2023-05-16T07:00:47.351Z,10.40
2023-05-16T07:03:16.414Z,10.40
2023-05-16T07:05:45.017Z,10.50
2023-05-16T07:08:15.323Z,10.60
2023-05-16T07:10:44.203Z,10.60
2023-05-16T07:13:14.490Z,10.40
2023-05-16T07:15:43.030Z,10.60
2023-05-16T07:18:11.851Z,10.60
2023-05-16T07:20:43.608Z,10.60
2023-05-16T07:23:12.471Z,10.70
2023-05-16T07:25:42.707Z,10.80
2023-05-16T07:28:13.099Z,11.00
2023-05-16T07:30:41.868Z,10.90
2023-05-16T07:33:11.671Z,10.90
2023-05-16T07:35:42.018Z,10.90
2023-05-16T07:38:10.888Z,11.10
2023-05-16T07:40:39.470Z,11.20
2023-05-16T07:43:10.182Z,11.30
2023-05-16T07:45:38.872Z,11.40
2023-05-16T07:48:07.814Z,11.40
2023-05-16T07:50:36.780Z,11.50
2023-05-16T07:53:05.323Z,11.60
2023-05-16T07:55:34.254Z,11.70
2023-05-16T07:58:03.315Z,11.60
2023-05-16T08:00:34.233Z,11.70
2023-05-16T08:03:03.286Z,11.60
2023-05-16T08:05:32.205Z,11.50
2023-05-16T08:08:01.325Z,11.50
2023-05-16T08:10:30.220Z,11.50
2023-05-16T08:13:00.844Z,11.50
2023-05-16T08:15:29.856Z,11.40
2023-05-16T08:18:01.902Z,11.30
2023-05-16T08:20:31.167Z,11.50
2023-05-16T08:22:59.801Z,11.60
2023-05-16T08:25:28.878Z,11.70
2023-05-16T08:27:58.242Z,11.60
2023-05-16T08:30:28.645Z,11.30
2023-05-16T08:32:57.387Z,11.40
2023-05-16T08:35:28.161Z,11.30
2023-05-16T08:37:58.121Z,11.30
2023-05-16T08:40:28.566Z,11.30
2023-05-16T08:42:57.463Z,11.40
2023-05-16T08:45:29.949Z,11.60
2023-05-16T08:48:03.954Z,11.50
2023-05-16T08:50:34.533Z,11.60
2023-05-16T08:53:07.711Z,11.60
2023-05-16T08:55:37.525Z,11.60
2023-05-16T08:58:06.658Z,11.70
2023-05-16T09:00:35.787Z,11.80
2023-05-16T09:03:04.782Z,12.10
2023-05-16T09:05:35.514Z,12.40
2023-05-16T09:08:04.346Z,12.60
2023-05-16T09:10:33.250Z,12.40
2023-05-16T09:13:02.259Z,12.70
2023-05-16T09:15:34.701Z,12.90
2023-05-16T09:18:05.012Z,13.10
2023-05-16T09:20:35.124Z,13.20
2023-05-16T09:23:04.020Z,13.20
2023-05-16T09:25:33.985Z,13.40
2023-05-16T09:28:03.977Z,13.50
2023-05-16T09:30:35.075Z,13.80
2023-05-16T09:33:04.109Z,13.80
2023-05-16T09:35:45.137Z,13.80
2023-05-16T09:38:18.647Z,13.70
2023-05-16T09:40:47.655Z,13.20
2023-05-16T09:43:18.771Z,13.00
2023-05-16T09:45:49.494Z,12.90
2023-05-16T09:48:19.645Z,12.80
2023-05-16T09:50:54.774Z,12.90
2023-05-16T09:53:31.028Z,13.30
2023-05-16T09:56:07.706Z,13.80
2023-05-16T09:58:37.563Z,14.20
2023-05-16T10:01:07.373Z,14.50
2023-05-16T10:03:37.197Z,14.30
2023-05-16T10:06:09.062Z,14.10
2023-05-16T10:08:38.961Z,14.00
2023-05-16T10:11:08.329Z,13.50
2023-05-16T10:13:38.297Z,13.40
2023-05-16T10:16:14.424Z,13.60
2023-05-16T10:18:44.860Z,13.80
2023-05-16T10:21:17.546Z,14.10
2023-05-16T10:23:50.425Z,14.20
2023-05-16T10:26:19.710Z,14.20
2023-05-16T10:28:48.554Z,14.00
2023-05-16T10:31:18.040Z,13.80
2023-05-16T10:33:47.815Z,13.70
2023-05-16T10:36:19.237Z,13.90
2023-05-16T10:38:49.409Z,14.20
2023-05-16T10:41:19.887Z,14.60
2023-05-16T10:43:58.288Z,14.70
2023-05-16T10:46:30.572Z,14.50
2023-05-16T10:49:00.523Z,14.30
2023-05-16T10:51:39.289Z,14.30
2023-05-16T10:54:11.349Z,14.30
2023-05-16T10:56:40.575Z,14.10
2023-05-16T10:59:26.320Z,14.00
2023-05-16T11:01:58.088Z,14.30
2023-05-16T11:04:50.747Z,14.50
2023-05-16T11:07:22.894Z,14.90
2023-05-16T11:10:07.077Z,14.90
2023-05-16T11:12:40.812Z,14.60
2023-05-16T11:15:28.763Z,14.30
2023-05-16T11:18:10.295Z,14.30
2023-05-16T11:20:42.020Z,14.70
2023-05-16T11:23:26.560Z,15.00
2023-05-16T11:25:57.510Z,15.30
2023-05-16T11:28:28.167Z,15.50
2023-05-16T11:31:00.284Z,15.60
2023-05-16T11:33:30.043Z,15.30
2023-05-16T11:36:15.861Z,15.60
2023-05-16T11:38:47.161Z,15.60
2023-05-16T11:41:18.218Z,15.40
2023-05-16T11:43:48.052Z,15.10
2023-05-16T11:46:18.042Z,15.20
2023-05-16T11:48:47.785Z,15.40
2023-05-16T11:51:19.605Z,15.30
2023-05-16T11:53:51.355Z,15.10
2023-05-16T11:56:20.494Z,15.10
2023-05-16T11:58:51.556Z,14.90
2023-05-16T12:01:20.495Z,14.90
2023-05-16T12:03:57.431Z,14.80
2023-05-16T12:06:26.412Z,15.20
2023-05-16T12:08:56.947Z,15.50
2023-05-16T12:11:26.280Z,15.60
2023-05-16T12:13:55.062Z,15.90
2023-05-16T12:16:24.673Z,16.00
2023-05-16T12:18:53.400Z,16.00
2023-05-16T12:21:22.386Z,16.20
2023-05-16T12:23:51.628Z,16.30
2023-05-16T12:26:31.216Z,16.20
2023-05-16T12:29:01.326Z,16.00
2023-05-16T12:31:32.574Z,15.80
2023-05-16T12:34:02.535Z,16.00
2023-05-16T12:36:35.264Z,16.10
2023-05-16T12:39:05.479Z,15.70
2023-05-16T12:41:42.889Z,15.40
2023-05-16T12:44:17.531Z,15.40
2023-05-16T12:46:47.309Z,15.30
2023-05-16T12:49:16.464Z,15.40
2023-05-16T12:51:51.506Z,15.40
2023-05-16T12:54:23.213Z,15.50
2023-05-16T12:56:53.703Z,15.80
2023-05-16T12:59:22.472Z,15.60
2023-05-16T13:01:51.100Z,15.30
2023-05-16T13:04:20.609Z,15.30
2023-05-16T13:06:59.077Z,15.30
2023-05-16T13:09:32.524Z,15.20
2023-05-16T13:12:04.494Z,15.30
2023-05-16T13:14:33.135Z,15.30
2023-05-16T13:17:01.628Z,15.70
2023-05-16T13:19:32.208Z,16.00
2023-05-16T13:22:00.726Z,15.80
2023-05-16T13:24:29.592Z,15.50
2023-05-16T13:27:00.060Z,15.30
2023-05-16T13:29:30.297Z,15.20
2023-05-16T13:31:59.064Z,15.20
2023-05-16T13:34:27.873Z,15.00
2023-05-16T13:36:56.746Z,15.00
2023-05-16T13:39:25.188Z,15.00
2023-05-16T13:41:54.225Z,15.10
2023-05-16T13:44:23.322Z,15.10
2023-05-16T13:46:53.917Z,15.10
2023-05-16T13:49:22.516Z,15.10
2023-05-16T13:51:52.421Z,15.10
2023-05-16T13:54:21.970Z,15.40
2023-05-16T13:56:51.409Z,15.70
2023-05-16T13:59:28.520Z,15.70
2023-05-16T14:02:10.932Z,15.60
2023-05-16T14:04:39.781Z,15.50
2023-05-16T14:07:08.808Z,15.40
2023-05-16T14:09:39.676Z,15.40
2023-05-16T14:12:09.815Z,15.10
2023-05-16T14:14:38.811Z,15.20
2023-05-16T14:17:08.219Z,15.10
2023-05-16T14:19:37.771Z,15.00
2023-05-16T14:22:06.852Z,14.90
2023-05-16T14:24:35.548Z,14.80
2023-05-16T14:27:04.196Z,15.00
2023-05-16T14:29:32.778Z,15.20
2023-05-16T14:32:01.824Z,15.30
2023-05-16T14:34:31.085Z,15.30
2023-05-16T14:37:01.531Z,15.20
2023-05-16T14:39:30.054Z,15.30
2023-05-16T14:41:58.984Z,15.30
2023-05-16T14:44:27.533Z,15.40
2023-05-16T14:46:56.273Z,15.50
2023-05-16T14:49:25.090Z,15.50
2023-05-16T14:51:54.637Z,15.60
2023-05-16T14:54:24.423Z,15.60
2023-05-16T14:56:53.282Z,15.30
2023-05-16T14:59:22.197Z,15.20
2023-05-16T15:01:51.114Z,15.20
2023-05-16T15:04:19.878Z,15.20
2023-05-16T15:06:48.540Z,15.10
2023-05-16T15:09:17.803Z,15.10
2023-05-16T15:11:48.134Z,15.00
2023-05-16T15:14:17.523Z,14.90
2023-05-16T15:16:47.429Z,14.80
2023-05-16T15:19:16.211Z,14.70
2023-05-16T15:21:46.486Z,14.70
2023-05-16T15:24:15.580Z,14.90
2023-05-16T15:26:44.907Z,15.00
2023-05-16T15:29:15.199Z,15.10
2023-05-16T15:31:44.160Z,15.20
2023-05-16T15:34:16.056Z,15.20
2023-05-16T15:36:45.162Z,15.20
2023-05-16T15:39:14.070Z,15.00
2023-05-16T15:42:05.382Z,14.90
2023-05-16T15:44:32.896Z,14.80
2023-05-16T15:47:01.813Z,14.80
2023-05-16T15:49:30.630Z,14.90
2023-05-16T15:51:59.443Z,15.00
2023-05-16T15:54:29.200Z,15.20
2023-05-16T15:56:58.431Z,15.10
2023-05-16T15:59:27.835Z,14.90
2023-05-16T16:01:58.391Z,14.90
2023-05-16T16:04:27.378Z,14.80
2023-05-16T16:06:56.372Z,14.70
2023-05-16T16:09:25.126Z,14.60
2023-05-16T16:11:57.075Z,14.60
2023-05-16T16:14:25.901Z,14.60
2023-05-16T16:16:54.962Z,14.80
2023-05-16T16:19:26.731Z,14.90
2023-05-16T16:21:55.587Z,15.00
2023-05-16T16:24:26.635Z,15.00
2023-05-16T16:26:55.320Z,15.20
2023-05-16T16:29:24.152Z,15.20
2023-05-16T16:31:53.560Z,15.30
2023-05-16T16:34:23.392Z,15.10
2023-05-16T16:36:54.557Z,14.90
2023-05-16T16:39:23.236Z,15.00
2023-05-16T16:41:52.016Z,15.10
2023-05-16T16:44:21.653Z,15.20
2023-05-16T16:46:50.549Z,15.20
2023-05-16T16:49:28.773Z,15.10
2023-05-16T16:51:59.424Z,15.00
2023-05-16T16:54:28.540Z,15.10
2023-05-16T16:56:58.341Z,15.10
2023-05-16T16:59:27.057Z,14.80
2023-05-16T17:01:55.473Z,14.90
2023-05-16T17:04:24.169Z,14.90
2023-05-16T17:06:53.340Z,14.90
2023-05-16T17:09:25.486Z,14.90
2023-05-16T17:11:55.807Z,14.80
2023-05-16T17:14:24.447Z,14.80
2023-05-16T17:16:53.017Z,14.80
2023-05-16T17:19:22.284Z,14.80
2023-05-16T17:21:52.494Z,14.70
2023-05-16T17:24:23.102Z,14.80
2023-05-16T17:26:51.883Z,14.90
2023-05-16T17:29:20.745Z,14.80
2023-05-16T17:31:49.738Z,14.70
2023-05-16T17:34:18.626Z,14.70
2023-05-16T17:36:47.470Z,14.80
2023-05-16T17:39:16.014Z,14.80
2023-05-16T17:41:46.439Z,14.80
2023-05-16T17:44:14.929Z,14.50
2023-05-16T17:46:43.674Z,14.40
2023-05-16T17:49:12.374Z,14.30
2023-05-16T17:51:49.170Z,14.20
2023-05-16T17:54:18.649Z,14.10
2023-05-16T17:56:49.649Z,14.00
2023-05-16T17:59:19.410Z,13.90
2023-05-16T18:01:48.334Z,13.90
2023-05-16T18:04:18.328Z,13.70
2023-05-16T18:06:48.740Z,13.60
2023-05-16T18:09:17.524Z,13.60
2023-05-16T18:11:48.063Z,13.50
2023-05-16T18:14:17.617Z,13.50
2023-05-16T18:16:46.455Z,13.50
2023-05-16T18:19:15.531Z,13.50
2023-05-16T18:21:45.988Z,13.50
2023-05-16T18:24:15.410Z,13.50
2023-05-16T18:26:44.538Z,13.50
2023-05-16T18:29:15.073Z,13.50
2023-05-16T18:31:43.707Z,13.50
2023-05-16T18:34:12.316Z,13.60
2023-05-16T18:36:40.805Z,13.60
2023-05-16T18:39:10.756Z,13.60
2023-05-16T18:41:40.145Z,13.50
2023-05-16T18:44:10.666Z,13.50
2023-05-16T18:46:40.893Z,13.40
2023-05-16T18:49:09.747Z,13.20
2023-05-16T18:51:38.385Z,13.10
2023-05-16T18:54:07.346Z,13.00
2023-05-16T18:56:36.807Z,13.00
2023-05-16T18:59:07.048Z,12.90
2023-05-16T19:01:37.325Z,12.80
2023-05-16T19:04:08.297Z,12.80
2023-05-16T19:06:38.082Z,12.70
2023-05-16T19:09:07.882Z,12.60
2023-05-16T19:11:38.145Z,12.60
2023-05-16T19:14:07.937Z,12.60
2023-05-16T19:16:36.534Z,12.50
2023-05-16T19:19:08.176Z,12.30
2023-05-16T19:21:38.093Z,12.30
2023-05-16T19:24:10.017Z,12.20
2023-05-16T19:26:40.458Z,12.10
2023-05-16T19:29:10.752Z,12.10
2023-05-16T19:31:39.439Z,12.10
2023-05-16T19:34:09.796Z,12.10
2023-05-16T19:36:38.779Z,12.00
2023-05-16T19:39:07.714Z,12.00
2023-05-16T19:41:37.146Z,12.00
2023-05-16T19:44:08.950Z,12.00
2023-05-16T19:46:37.926Z,11.90
2023-05-16T19:49:10.928Z,11.80
2023-05-16T19:51:42.231Z,11.70
2023-05-16T19:54:11.172Z,11.70
2023-05-16T19:56:39.785Z,11.60
2023-05-16T19:59:08.676Z,11.50
2023-05-16T20:01:37.506Z,11.40
2023-05-16T20:04:07.848Z,11.40
2023-05-16T20:06:38.237Z,11.40
2023-05-16T20:09:07.591Z,11.30
2023-05-16T20:11:36.135Z,11.30
2023-05-16T20:14:06.141Z,11.30
2023-05-16T20:16:34.946Z,11.20
2023-05-16T20:19:03.794Z,11.10
2023-05-16T20:21:32.850Z,11.10
2023-05-16T20:24:03.175Z,11.00
2023-05-16T20:26:31.787Z,11.00
2023-05-16T20:29:00.622Z,10.90
2023-05-16T20:31:32.213Z,10.90
2023-05-16T20:34:00.898Z,10.80
2023-05-16T20:36:29.549Z,10.80
2023-05-16T20:38:58.390Z,10.80
2023-05-16T20:41:28.889Z,10.70
2023-05-16T20:43:57.318Z,10.70
2023-05-16T20:46:26.121Z,10.70
2023-05-16T20:48:55.036Z,10.60
2023-05-16T20:51:23.655Z,10.60
2023-05-16T20:53:52.589Z,10.50
2023-05-16T20:56:22.645Z,10.50
2023-05-16T20:58:52.521Z,10.50
2023-05-16T21:01:21.159Z,10.40
2023-05-16T21:03:51.536Z,10.40
2023-05-16T21:06:20.268Z,10.40
2023-05-16T21:08:48.926Z,10.30
2023-05-16T21:11:18.344Z,10.30
2023-05-16T21:13:47.118Z,10.30
2023-05-16T21:16:17.215Z,10.20
2023-05-16T21:18:46.136Z,10.20
2023-05-16T21:21:15.316Z,10.10
2023-05-16T21:23:45.346Z,10.10
2023-05-16T21:26:14.220Z,10.10
2023-05-16T21:28:54.536Z,10.10
2023-05-16T21:31:26.701Z,10.00
2023-05-16T21:33:55.697Z,10.00
2023-05-16T21:36:24.717Z,9.90
2023-05-16T21:38:53.109Z,9.90
2023-05-16T21:41:22.358Z,9.90
2023-05-16T21:43:51.717Z,9.80
2023-05-16T21:46:20.247Z,9.80
2023-05-16T21:48:50.277Z,9.70
2023-05-16T21:51:19.946Z,9.70
2023-05-16T21:53:49.105Z,9.70
2023-05-16T21:56:17.890Z,9.70
2023-05-16T21:58:49.246Z,9.60
2023-05-16T22:01:20.505Z,9.60
2023-05-16T22:03:50.752Z,9.50
2023-05-16T22:06:19.780Z,9.50
2023-05-16T22:08:48.736Z,9.50
2023-05-16T22:11:19.555Z,9.50
2023-05-16T22:13:48.493Z,9.40
2023-05-16T22:16:17.422Z,9.40
2023-05-16T22:18:46.778Z,9.30
2023-05-16T22:21:17.874Z,9.30
2023-05-16T22:23:46.900Z,9.20
2023-05-16T22:26:15.740Z,9.20
2023-05-16T22:28:44.430Z,9.10
2023-05-16T22:31:12.819Z,9.10
2023-05-16T22:33:41.496Z,9.10
2023-05-16T22:36:13.374Z,9.00
2023-05-16T22:38:43.395Z,9.00
2023-05-16T22:41:11.974Z,8.90
2023-05-16T22:43:41.237Z,8.90
2023-05-16T22:46:09.777Z,8.90
2023-05-16T22:48:38.315Z,8.90
2023-05-16T22:51:07.130Z,8.90
2023-05-16T22:53:36.278Z,8.80
2023-05-16T22:56:07.948Z,8.80
2023-05-16T22:58:36.804Z,8.80
2023-05-16T23:01:05.917Z,8.80
2023-05-16T23:03:35.248Z,8.80
2023-05-16T23:06:04.005Z,8.80
2023-05-16T23:08:33.239Z,8.80
2023-05-16T23:11:02.276Z,8.70
2023-05-16T23:13:32.731Z,8.70
2023-05-16T23:16:01.567Z,8.70
2023-05-16T23:18:30.712Z,8.60
2023-05-16T23:20:59.401Z,8.60
2023-05-16T23:23:28.047Z,8.50
2023-05-16T23:25:57.087Z,8.50
2023-05-16T23:28:26.170Z,8.50
2023-05-16T23:30:56.419Z,8.50
2023-05-16T23:33:25.037Z,8.50
2023-05-16T23:35:53.547Z,8.50
2023-05-16T23:38:22.788Z,8.40
2023-05-16T23:40:51.650Z,8.40
2023-05-16T23:43:20.315Z,8.40
2023-05-16T23:45:49.176Z,8.40
2023-05-16T23:48:19.783Z,8.30
2023-05-16T23:50:48.352Z,8.30
2023-05-16T23:53:16.994Z,8.30
2023-05-16T23:55:46.255Z,8.30
2023-05-16T23:58:15.633Z,8.20
